Time;durP1;ratioP1;P1;durP2;ratioP2;P2;SDS_P1;SDS_P2;PMS_P1;PMS_P2;Temp;Humidity;BMP_temperature;BMP_pressure;BME280_temperature;BME280_humidity;BME280_pressure;Samples;Min_cycle;Max_cycle;Signal;HPM_P1;HPM_P2
2022/04/09 00:03:04;;;;;;;41.23;21.47;;;;;;;1.17;85.82;98366.86;3735515;78;98597;-87
2022/04/09 00:08:05;;;;;;;44.50;22.75;;;;;;;1.13;85.91;98354.39;3722538;78;98765;-86
2022/04/09 00:13:06;;;;;;;49.47;23.67;;;;;;;1.14;86.09;98370.84;3719658;78;98594;-87
2022/04/09 00:18:07;;;;;;;43.20;22.63;;;;;;;1.12;86.42;98347.41;3715487;78;98630;-86
2022/04/09 00:23:12;;;;;;;43.30;21.70;;;;;;;1.11;86.72;98358.81;3708378;78;98461;-87
2022/04/09 00:28:13;;;;;;;41.00;21.83;;;;;;;1.11;86.82;98360.76;3711270;78;98485;-86
2022/04/09 00:33:14;;;;;;;44.13;21.87;;;;;;;1.12;87.20;98366.38;3736849;78;98670;-87
2022/04/09 00:38:15;;;;;;;41.90;21.43;;;;;;;1.10;87.79;98374.09;3724231;78;98572;-87
2022/04/09 00:43:16;;;;;;;38.40;18.63;;;;;;;1.10;87.97;98373.50;3723574;78;98627;-86
2022/04/09 00:48:20;;;;;;;42.27;20.33;;;;;;;1.12;88.02;98368.52;3651282;78;98499;-87
2022/04/09 00:53:21;;;;;;;41.67;19.50;;;;;;;1.16;88.66;98377.46;3613452;79;98522;-87
2022/04/09 00:58:25;;;;;;;36.42;17.57;;;;;;;1.18;89.10;98381.96;3638034;79;98558;-87
2022/04/09 01:03:28;;;;;;;31.73;15.37;;;;;;;1.24;89.40;98379.70;3621805;79;98633;-88
2022/04/09 01:08:29;;;;;;;26.07;13.77;;;;;;;1.30;90.38;98377.69;3638932;79;98659;-87
2022/04/09 01:13:30;;;;;;;23.00;11.17;;;;;;;1.37;90.47;98389.97;3633066;79;98686;-87
2022/04/09 01:18:33;;;;;;;21.93;10.80;;;;;;;1.48;91.02;98396.91;3640560;79;98216;-87
2022/04/09 01:23:34;;;;;;;19.83;9.80;;;;;;;1.56;91.00;98411.55;3630840;79;98380;-87
2022/04/09 01:28:36;;;;;;;23.33;10.20;;;;;;;1.67;91.38;98416.55;3630628;79;98354;-87
2022/04/09 01:33:38;;;;;;;21.87;9.77;;;;;;;1.77;91.64;98428.67;3634235;79;98611;-87
2022/04/09 01:38:39;;;;;;;22.13;9.33;;;;;;;1.84;92.04;98428.20;3649133;79;98366;-89
2022/04/09 01:43:41;;;;;;;18.20;8.23;;;;;;;1.95;92.26;98436.46;3643012;79;98394;-87
2022/04/09 01:48:43;;;;;;;20.27;9.77;;;;;;;2.05;92.13;98443.95;3659108;78;98514;-87
2022/04/09 01:53:44;;;;;;;17.83;9.73;;;;;;;2.11;91.98;98445.98;3672907;78;27423;-87
2022/04/09 01:58:44;;;;;;;17.37;8.10;;;;;;;2.19;91.93;98447.62;3679194;78;98353;-87
2022/04/09 02:03:45;;;;;;;16.63;8.30;;;;;;;2.25;91.63;98446.14;3692054;78;98500;-87
2022/04/09 02:08:46;;;;;;;18.23;7.63;;;;;;;2.33;91.74;98462.73;3671866;78;98546;-87
2022/04/09 02:13:47;;;;;;;17.70;8.70;;;;;;;2.38;91.90;98467.83;3685838;78;98356;-89
2022/04/09 02:18:48;;;;;;;18.33;8.17;;;;;;;2.43;91.39;98478.92;3681573;78;98395;-88
2022/04/09 02:23:49;;;;;;;17.10;7.53;;;;;;;2.49;91.61;98478.23;3673857;78;26465;-87
2022/04/09 02:28:50;;;;;;;15.30;7.50;;;;;;;2.53;91.44;98493.20;3679367;78;98319;-87
2022/04/09 02:33:51;;;;;;;17.50;7.73;;;;;;;2.58;91.34;98489.56;3671456;78;98422;-87
2022/04/09 02:38:52;;;;;;;15.53;7.83;;;;;;;2.67;91.08;98490.66;3670132;78;98404;-87
2022/04/09 02:43:53;;;;;;;15.00;7.10;;;;;;;2.72;91.11;98492.45;3665724;78;98474;-88
2022/04/09 02:48:54;;;;;;;16.77;7.63;;;;;;;2.79;90.94;98493.11;3618279;79;98573;-88
2022/04/09 02:53:54;;;;;;;17.60;7.77;;;;;;;2.83;90.84;98496.62;3620939;80;98205;-87
2022/04/09 02:58:56;;;;;;;18.33;7.43;;;;;;;2.87;90.83;98508.31;3598557;80;98295;-87
2022/04/09 03:03:57;;;;;;;16.33;6.87;;;;;;;2.91;90.58;98498.27;3582231;80;101035;-87
2022/04/09 03:08:59;;;;;;;16.10;7.20;;;;;;;2.92;91.00;98502.55;3612193;81;98678;-88
2022/04/09 03:14:00;;;;;;;14.70;7.00;;;;;;;2.91;90.49;98507.78;3602839;81;98520;-87
2022/04/09 03:19:02;;;;;;;17.07;6.77;;;;;;;2.86;90.52;98517.06;3607425;81;98443;-87
2022/04/09 03:24:04;;;;;;;16.70;6.60;;;;;;;2.83;90.46;98530.02;3625118;81;98360;-87
2022/04/09 03:29:05;;;;;;;15.43;6.83;;;;;;;2.76;90.60;98521.00;3625047;80;98250;-87
2022/04/09 03:34:06;;;;;;;17.30;7.27;;;;;;;2.78;90.43;98542.56;3600098;81;98248;-88
2022/04/09 03:39:07;;;;;;;13.93;7.23;;;;;;;2.77;90.32;98557.30;3625106;80;98502;-87
2022/04/09 03:44:08;;;;;;;15.00;6.43;;;;;;;2.73;90.35;98563.86;3610185;80;98385;-87
2022/04/09 03:49:10;;;;;;;16.07;6.63;;;;;;;2.67;90.41;98556.59;3675292;79;98484;-88
2022/04/09 03:54:11;;;;;;;12.97;6.70;;;;;;;2.64;90.50;98569.57;3717881;78;98474;-87
2022/04/09 03:59:12;;;;;;;16.90;7.93;;;;;;;2.56;90.60;98575.28;3723410;79;98328;-87
2022/04/09 04:04:14;;;;;;;15.32;7.45;;;;;;;2.49;90.75;98577.33;3700572;79;98448;-87
2022/04/09 04:09:16;;;;;;;17.73;8.63;;;;;;;2.45;90.85;98585.20;3724545;78;98405;-87
2022/04/09 04:14:17;;;;;;;13.78;7.75;;;;;;;2.36;91.01;98584.70;3710215;78;98472;-87
2022/04/09 04:19:18;;;;;;;13.27;7.60;;;;;;;2.30;91.15;98593.72;3720476;78;98454;-87
2022/04/09 04:24:19;;;;;;;17.63;9.93;;;;;;;2.20;91.31;98595.70;3705965;78;98112;-87
2022/04/09 04:29:20;;;;;;;20.30;12.43;;;;;;;2.19;91.34;98612.38;3723014;78;98226;-88
2022/04/09 04:34:21;;;;;;;15.20;10.20;;;;;;;2.16;91.33;98614.45;3712015;77;98513;-87
2022/04/09 04:39:22;;;;;;;14.33;8.07;;;;;;;2.15;91.72;98630.52;3720928;78;98574;-87
2022/04/09 04:44:23;;;;;;;16.03;6.70;;;;;;;2.18;92.14;98642.78;3707336;77;98889;-88
2022/04/09 04:49:24;;;;;;;20.73;7.13;;;;;;;2.22;92.60;98649.62;3749324;78;98444;-88
2022/04/09 04:54:25;;;;;;;13.60;6.97;;;;;;;2.27;92.70;98658.81;3730615;78;98308;-88
2022/04/09 04:59:26;;;;;;;20.73;8.57;;;;;;;2.31;92.96;98658.30;3731281;78;98355;-90
2022/04/09 05:04:27;;;;;;;18.37;7.90;;;;;;;2.36;93.28;98666.89;3708546;78;98476;-90
2022/04/09 05:09:28;;;;;;;21.37;7.57;;;;;;;2.44;93.57;98675.37;3715569;78;98482;-88
2022/04/09 05:14:29;;;;;;;18.87;6.63;;;;;;;2.60;93.31;98704.50;3749605;78;98456;-87
2022/04/09 05:19:30;;;;;;;16.53;6.67;;;;;;;2.60;93.31;98704.50;3753422;78;98564;-89
2022/04/09 05:24:31;;;;;;;16.45;6.58;;;;;;;2.70;93.40;98711.23;3677750;78;98210;-89
2022/04/09 05:29:32;;;;;;;18.53;7.13;;;;;;;2.80;93.28;98711.96;3753686;78;98113;-90
2022/04/09 05:34:33;;;;;;;22.17;7.50;;;;;;;2.91;93.61;98728.63;3685376;78;98503;-87
2022/04/09 05:39:35;;;;;;;32.73;10.93;;;;;;;3.02;93.30;98733.63;3731015;78;98540;-89
2022/04/09 05:44:37;;;;;;;21.85;7.37;;;;;;;3.16;93.45;98743.31;3743767;78;98767;-87
2022/04/09 05:49:38;;;;;;;14.87;6.43;;;;;;;3.28;93.29;98749.88;3711175;78;98509;-87
2022/04/09 05:54:40;;;;;;;15.20;5.23;;;;;;;3.42;93.07;98757.42;3721296;78;98488;-88
2022/04/09 05:59:40;;;;;;;12.53;5.50;;;;;;;3.55;92.83;98771.01;3747027;78;31645;-87
2022/04/09 06:04:43;;;;;;;18.93;5.83;;;;;;;3.69;92.94;98781.47;3694921;78;98412;-89
2022/04/09 06:09:46;;;;;;;11.47;4.43;;;;;;;3.82;92.66;98785.50;3739670;78;98415;-88
2022/04/09 06:14:50;;;;;;;9.87;4.23;;;;;;;3.92;92.67;98791.64;3712409;78;98438;-88
2022/04/09 06:19:51;;;;;;;12.30;5.93;;;;;;;4.03;91.98;98806.14;3746271;78;98317;-87
2022/04/09 06:24:52;;;;;;;14.78;6.85;;;;;;;4.14;91.59;98817.93;3741122;78;98273;-85
2022/04/09 06:29:53;;;;;;;14.17;4.93;;;;;;;4.19;91.19;98824.40;3714451;78;31621;-87
2022/04/09 06:34:56;;;;;;;10.73;5.03;;;;;;;4.33;91.55;98837.38;3731122;78;98330;-87
2022/04/09 06:39:57;;;;;;;13.03;4.63;;;;;;;4.47;91.34;98832.84;3743611;77;98887;-87
2022/04/09 06:45:00;;;;;;;12.20;5.00;;;;;;;4.62;91.02;98833.76;3713488;78;98383;-90
2022/04/09 06:50:00;;;;;;;9.85;4.33;;;;;;;4.74;90.50;98834.27;3713828;78;98945;-87
2022/04/09 06:55:20;;;;;;;9.38;4.47;;;;;;;4.80;89.22;98844.25;3729232;78;98392;-88
2022/04/09 07:00:21;;;;;;;12.50;4.87;;;;;;;4.91;89.75;98854.66;3702240;78;25840;-87
2022/04/09 07:05:22;;;;;;;12.50;4.80;;;;;;;5.10;89.91;98868.83;3722951;78;98720;-86
2022/04/09 07:10:23;;;;;;;11.03;4.50;;;;;;;5.33;89.20;98865.86;3717471;78;98801;-87
2022/04/09 07:15:24;;;;;;;10.73;3.40;;;;;;;5.55;87.93;98871.65;3713769;78;98427;-87
2022/04/09 07:20:25;;;;;;;8.07;3.03;;;;;;;5.71;86.94;98877.02;3745483;78;98536;-87
2022/04/09 07:25:30;;;;;;;11.77;4.70;;;;;;;5.86;86.10;98890.98;3752588;78;98318;-85
2022/04/09 07:30:31;;;;;;;11.10;3.53;;;;;;;5.97;83.57;98891.02;3725474;78;29459;-86
2022/04/09 07:35:32;;;;;;;10.57;2.80;;;;;;;6.04;82.95;98900.59;3726085;78;98643;-85
2022/04/09 07:40:36;;;;;;;6.33;2.55;;;;;;;6.14;82.31;98911.59;3736102;78;98272;-87
2022/04/09 07:45:37;;;;;;;10.10;2.75;;;;;;;6.29;81.12;98920.61;3731552;78;98294;-87
2022/04/09 07:50:39;;;;;;;11.67;2.53;;;;;;;6.34;79.17;98933.30;3730366;78;98490;-87
2022/04/09 07:55:40;;;;;;;13.78;3.35;;;;;;;6.36;77.34;98942.48;3722313;78;98476;-85
2022/04/09 08:00:43;;;;;;;10.83;2.90;;;;;;;6.34;77.69;98953.80;3726660;78;32462;-86
2022/04/09 08:05:44;;;;;;;6.53;2.17;;;;;;;6.46;77.29;98967.14;3747836;78;98488;-84
2022/04/09 08:10:45;;;;;;;6.93;2.30;;;;;;;6.63;76.57;98978.72;3741387;78;98494;-87
2022/04/09 08:15:47;;;;;;;6.70;2.33;;;;;;;6.77;74.61;98992.41;3727688;78;98407;-85
2022/04/09 08:20:48;;;;;;;13.80;2.53;;;;;;;6.86;74.90;99011.19;3752358;78;98224;-87
2022/04/09 08:25:49;;;;;;;7.00;2.17;;;;;;;7.03;73.40;99023.55;3710481;78;98541;-89
2022/04/09 08:30:52;;;;;;;6.23;2.00;;;;;;;7.22;69.78;99027.89;3732451;78;98363;-90
2022/04/09 08:35:53;;;;;;;5.03;1.95;;;;;;;7.31;70.11;99036.52;3681737;78;98239;-85
2022/04/09 08:40:55;;;;;;;7.93;2.50;;;;;;;7.74;71.23;99040.86;3722665;78;98148;-89
2022/04/09 08:46:02;;;;;;;7.35;1.95;;;;;;;8.21;68.63;99054.14;3723366;78;98308;-86
2022/04/09 08:51:01;;;;;;;7.00;1.93;;;;;;;8.49;70.59;99060.93;3730224;78;98324;-85
2022/04/09 08:56:06;;;;;;;8.57;2.07;;;;;;;9.22;70.11;99070.84;3714366;78;98261;-85
2022/04/09 09:01:12;;;;;;;6.75;2.02;;;;;;;9.86;67.39;99076.89;3739598;78;98254;-86
2022/04/09 09:06:34;;;;;;;6.80;1.77;;;;;;;10.36;63.29;99073.16;3692561;78;98410;-86
2022/04/09 09:11:48;;;;;;;6.70;2.27;;;;;;;10.80;63.51;99082.09;3711279;78;98710;-88
2022/04/09 09:16:49;;;;;;;6.60;1.98;;;;;;;11.32;61.46;99075.73;3691118;78;98620;-84
2022/04/09 09:21:55;;;;;;;7.90;2.07;;;;;;;11.85;59.85;99077.16;3744181;78;98765;-89
2022/04/09 09:26:59;;;;;;;7.28;3.35;;;;;;;11.84;57.01;99094.28;3713271;78;98670;-86
2022/04/09 09:32:08;;;;;;;7.97;1.98;;;;;;;12.09;58.26;99093.89;3734124;78;98686;-86
2022/04/09 09:37:14;;;;;;;7.65;1.95;;;;;;;12.41;55.62;99088.03;3700602;78;98752;-87
2022/04/09 09:42:21;;;;;;;4.75;1.77;;;;;;;12.43;53.98;99101.41;3732477;78;33370;-86
2022/04/09 09:47:22;;;;;;;9.75;3.08;;;;;;;12.33;51.56;99106.52;3697031;78;98556;-85
2022/04/09 09:52:36;;;;;;;6.13;2.03;;;;;;;12.41;52.12;99099.66;3747759;78;97675;-88
2022/04/09 09:57:41;;;;;;;9.33;3.15;;;;;;;12.60;53.36;99101.08;3708301;78;98831;-89
2022/04/09 10:02:46;;;;;;;5.85;2.10;;;;;;;12.92;53.15;99104.64;3733330;78;98684;-88
2022/04/09 10:07:49;;;;;;;6.17;2.35;;;;;;;13.31;51.00;99117.84;3714690;78;98606;-86
2022/04/09 10:12:52;;;;;;;8.28;2.42;;;;;;;13.45;50.91;99107.09;3754079;78;98750;-86
2022/04/09 10:18:00;;;;;;;7.25;1.95;;;;;;;13.96;51.15;99104.34;3723203;78;98406;-85
2022/04/09 10:23:05;;;;;;;5.25;1.80;;;;;;;14.16;47.69;99110.59;3732302;78;98561;-85
2022/04/09 10:28:08;;;;;;;8.73;2.50;;;;;;;14.18;48.82;99117.08;3698885;78;98196;-86
2022/04/09 10:33:27;;;;;;;6.08;1.90;;;;;;;14.35;46.79;99120.83;3721358;78;98736;-86
2022/04/09 10:38:29;;;;;;;7.97;1.70;;;;;;;14.59;47.16;99129.70;3730056;78;98584;-87
2022/04/09 10:43:42;;;;;;;7.00;2.60;;;;;;;14.95;44.29;99130.33;3634800;80;98715;-92
2022/04/09 10:48:47;;;;;;;7.53;1.80;;;;;;;14.71;43.25;99138.70;3678985;78;98240;-91
2022/04/09 10:53:55;;;;;;;7.28;2.20;;;;;;;14.98;44.57;99141.93;3699769;77;97470;-90
2022/04/09 10:59:16;;;;;;;6.47;2.05;;;;;;;14.73;44.41;99137.05;3697401;77;98540;-90
2022/04/09 11:04:42;;;;;;;5.90;2.10;;;;;;;14.53;42.83;99148.84;3682937;77;98644;-90
2022/04/09 11:10:04;;;;;;;7.65;2.33;;;;;;;14.63;42.46;99154.72;3689008;77;33546;-91
2022/04/09 11:15:09;;;;;;;9.70;2.30;;;;;;;14.71;43.76;99174.08;3697033;77;98999;-89
2022/04/09 11:20:36;;;;;;;9.85;3.40;;;;;;;14.39;41.61;99169.17;3727760;77;98063;-89
2022/04/09 11:25:43;;;;;;;13.78;5.67;;;;;;;14.40;41.79;99183.95;3715824;78;98676;-93
2022/04/09 11:31:02;;;;;;;13.55;3.52;;;;;;;14.35;39.09;99181.72;3678238;78;34361;-94
2022/04/09 11:36:05;;;;;;;6.72;1.72;;;;;;;14.24;39.93;99205.31;3717492;77;98982;-92
2022/04/09 11:41:12;;;;;;;9.77;2.07;;;;;;;14.38;40.76;99203.61;3730157;78;98406;-89
2022/04/09 11:46:18;;;;;;;18.57;5.53;;;;;;;14.53;40.16;99214.48;3705301;77;99135;-90
2022/04/09 11:51:19;;;;;;;7.53;2.27;;;;;;;14.33;38.54;99212.42;3716361;78;98853;-92
2022/04/09 11:56:20;;;;;;;6.78;1.75;;;;;;;14.00;37.53;99212.16;3711925;77;98981;-90
2022/04/09 12:01:25;;;;;;;7.57;1.73;;;;;;;14.03;39.09;99220.38;3732251;78;26373;-93
2022/04/09 12:06:27;;;;;;;10.30;2.47;;;;;;;14.22;38.33;99220.19;3708198;78;98869;-91
2022/04/09 12:11:28;;;;;;;10.30;2.20;;;;;;;14.36;38.04;99234.48;3718451;78;98612;-91
2022/04/09 12:16:34;;;;;;;5.10;1.80;;;;;;;14.53;38.32;99248.50;3743962;78;99151;-87
2022/04/09 12:21:42;;;;;;;17.12;2.90;;;;;;;14.47;36.87;99248.84;3724183;78;98742;-93
2022/04/09 12:26:45;;;;;;;16.32;2.92;;;;;;;14.34;37.07;99241.65;3738503;78;98801;-85
2022/04/09 12:31:51;;;;;;;8.43;2.02;;;;;;;14.01;37.13;99249.05;3724192;78;98777;-87
2022/04/09 12:37:07;;;;;;;17.50;5.08;;;;;;;13.67;37.60;99250.56;3712663;78;98336;-89
2022/04/09 12:42:08;;;;;;;9.88;2.30;;;;;;;13.59;38.10;99256.08;3740998;78;98642;-88
2022/04/09 12:47:09;;;;;;;10.57;2.60;;;;;;;13.18;37.55;99257.05;3652709;78;98845;-90
2022/04/09 12:52:12;;;;;;;8.47;2.07;;;;;;;12.97;39.23;99272.63;3711864;77;98809;-87
2022/04/09 12:57:14;;;;;;;13.50;2.45;;;;;;;12.71;39.11;99273.42;3719319;78;98661;-87
2022/04/09 13:02:16;;;;;;;11.25;2.37;;;;;;;12.39;39.81;99288.30;3720193;78;97957;-91
2022/04/09 13:07:18;;;;;;;8.40;1.93;;;;;;;12.25;40.33;99285.73;3723410;78;98633;-87
2022/04/09 13:12:20;;;;;;;15.38;2.67;;;;;;;12.16;41.19;99275.83;3755830;78;98399;-88
2022/04/09 13:17:21;;;;;;;11.55;1.80;;;;;;;12.30;40.19;99293.54;3675724;78;98786;-86
2022/04/09 13:22:22;;;;;;;4.63;1.77;;;;;;;12.08;40.32;99294.44;3675426;78;98735;-89
2022/04/09 13:27:23;;;;;;;6.47;1.70;;;;;;;11.90;39.77;99292.52;3698210;78;98703;-86
2022/04/09 13:32:26;;;;;;;4.33;1.92;;;;;;;11.79;40.91;99300.14;3728672;78;98748;-88
2022/04/09 13:37:27;;;;;;;10.60;2.20;;;;;;;11.88;41.34;99295.50;3745630;78;98439;-89
2022/04/09 13:42:28;;;;;;;5.67;1.70;;;;;;;11.95;41.50;99305.05;3720249;78;99069;-86
2022/04/09 13:47:29;;;;;;;4.77;1.60;;;;;;;11.75;40.34;99318.68;3692317;78;98470;-88
2022/04/09 13:52:33;;;;;;;8.60;1.80;;;;;;;11.67;40.89;99296.52;3722241;78;99070;-90
2022/04/09 13:57:34;;;;;;;9.33;2.17;;;;;;;11.58;40.55;99295.41;3722925;78;98669;-93
2022/04/09 14:02:37;;;;;;;6.03;2.00;;;;;;;11.52;41.10;99306.12;3742097;77;98831;-90
2022/04/09 14:07:39;;;;;;;4.78;1.90;;;;;;;11.48;41.93;99303.20;3712505;77;98620;-90
2022/04/09 14:12:42;;;;;;;6.37;2.08;;;;;;;11.46;41.48;99295.33;3752655;77;98537;-87
2022/04/09 14:17:43;;;;;;;8.53;2.60;;;;;;;11.40;41.34;99294.83;3732138;77;98402;-88
2022/04/09 14:22:46;;;;;;;5.90;1.87;;;;;;;11.18;41.64;99294.86;3742848;77;98593;-84
2022/04/09 14:27:47;;;;;;;7.33;1.50;;;;;;;11.18;41.64;99294.86;3716437;77;98709;-87
2022/04/09 14:32:48;;;;;;;7.33;2.00;;;;;;;11.14;42.69;99288.02;3701267;77;98576;-90
2022/04/09 14:37:51;;;;;;;8.20;1.87;;;;;;;11.14;42.69;99288.02;3729183;77;98233;-89
2022/04/09 14:42:56;;;;;;;5.10;2.10;;;;;;;11.30;42.46;99295.13;3757642;77;98443;-90
2022/04/09 14:47:57;;;;;;;7.53;1.80;;;;;;;11.17;42.04;99297.43;3706118;78;98179;-88
2022/04/09 14:53:05;;;;;;;6.72;2.00;;;;;;;10.99;42.87;99302.30;3706328;77;98948;-88
2022/04/09 14:58:13;;;;;;;13.32;2.62;;;;;;;10.86;43.31;99329.52;3721917;78;99073;-84
2022/04/09 15:03:14;;;;;;;20.00;6.67;;;;;;;10.58;44.27;99360.60;3722979;78;99359;-88
2022/04/09 15:08:18;;;;;;;30.60;11.20;;;;;;;10.27;46.58;99346.42;3721016;78;98896;-87
2022/04/09 15:13:19;;;;;;;19.47;9.27;;;;;;;10.00;48.18;99338.47;3710148;78;30979;-87
2022/04/09 15:18:22;;;;;;;10.60;4.57;;;;;;;10.13;49.97;99362.97;3746790;78;98631;-87
2022/04/09 15:23:23;;;;;;;9.20;2.80;;;;;;;10.10;50.77;99338.47;3729779;78;98743;-91
2022/04/09 15:28:24;;;;;;;7.70;2.50;;;;;;;10.10;50.65;99337.67;3748299;78;98732;-86
2022/04/09 15:33:27;;;;;;;10.33;2.83;;;;;;;10.12;48.74;99341.59;3713707;78;98740;-91
2022/04/09 15:38:29;;;;;;;7.80;2.83;;;;;;;10.05;49.30;99339.46;3701976;78;98694;-89
2022/04/09 15:43:30;;;;;;;9.00;2.33;;;;;;;10.04;49.24;99337.90;3749665;78;32566;-88
2022/04/09 15:48:31;;;;;;;7.90;2.40;;;;;;;10.07;48.91;99328.84;3723469;77;98020;-89
2022/04/09 15:53:34;;;;;;;64.13;7.00;;;;;;;10.03;48.04;99337.69;3736573;78;98766;-87
2022/04/09 15:58:43;;;;;;;5.00;0.80;;;;;;;9.85;51.62;99427.63;3645392;78;98736;-87
2022/04/09 16:03:44;;;;;;;4.72;1.65;;;;;;;8.92;56.86;99421.78;3713826;78;98386;-85
2022/04/09 16:09:18;;;;;;;12.47;5.07;;;;;;;8.23;59.80;99502.65;3694422;78;97783;-87
2022/04/09 16:14:23;;;;;;;7.75;3.62;;;;;;;7.73;62.29;99514.39;3723373;78;98303;-86
2022/04/09 16:19:24;;;;;;;15.88;6.65;;;;;;;7.22;65.87;99538.20;3727383;78;98506;-89
2022/04/09 16:24:33;;;;;;;11.17;4.47;;;;;;;6.94;67.54;99542.00;3686932;78;98161;-89
2022/04/09 16:29:38;;;;;;;27.40;10.68;;;;;;;6.65;68.96;99527.20;3710723;78;98410;-90
2022/04/09 16:34:40;;;;;;;15.35;6.37;;;;;;;6.57;69.97;99535.69;3704990;78;98772;-87
2022/04/09 16:39:41;;;;;;;8.10;2.70;;;;;;;6.42;71.08;99539.39;3730979;78;98406;-87
2022/04/09 16:44:45;;;;;;;3.90;1.50;;;;;;;6.06;72.52;99531.88;3676942;78;97980;-91
2022/04/09 16:49:46;;;;;;;3.58;1.42;;;;;;;5.79;73.67;99508.43;3729828;78;98133;-87
2022/04/09 16:54:51;;;;;;;6.33;1.50;;;;;;;5.66;73.99;99498.28;3635255;78;98590;-84
2022/04/09 16:59:55;;;;;;;6.08;1.87;;;;;;;5.59;75.24;99506.37;3622504;79;98734;-85
2022/04/09 17:04:55;;;;;;;6.72;1.98;;;;;;;5.47;76.04;99504.41;3648279;79;98585;-86
2022/04/09 17:10:00;;;;;;;7.87;2.80;;;;;;;5.32;76.63;99497.93;3650220;79;98303;-85
2022/04/09 17:15:09;;;;;;;5.65;2.27;;;;;;;5.20;77.54;99494.59;3635759;79;98388;-86
2022/04/09 17:20:17;;;;;;;6.53;2.40;;;;;;;5.10;78.15;99486.45;3631533;79;97884;-87
2022/04/09 17:25:21;;;;;;;7.22;2.58;;;;;;;5.02;78.87;99486.09;3647621;79;98243;-86
2022/04/09 17:30:28;;;;;;;8.43;2.83;;;;;;;4.95;79.93;99487.90;3644451;79;98291;-84
2022/04/09 17:35:29;;;;;;;6.25;2.87;;;;;;;4.86;80.53;99487.36;3616059;79;98439;-86
2022/04/09 17:40:32;;;;;;;16.57;4.93;;;;;;;4.74;81.09;99490.25;3624906;79;98287;-88
2022/04/09 17:45:36;;;;;;;9.88;2.70;;;;;;;4.68;81.82;99487.58;3636867;79;98506;-88
2022/04/09 17:50:37;;;;;;;13.45;3.85;;;;;;;4.61;81.67;99495.07;3646294;79;30940;-89
2022/04/09 17:55:45;;;;;;;5.95;2.30;;;;;;;4.55;81.79;99498.43;3716108;77;98440;-87
2022/04/09 18:01:12;;;;;;;7.20;2.40;;;;;;;4.52;81.79;99510.84;3696475;77;98197;-83
2022/04/09 18:06:19;;;;;;;6.33;1.90;;;;;;;4.43;82.37;99548.39;3673224;77;98323;-89
2022/04/09 18:11:20;;;;;;;7.62;2.37;;;;;;;4.27;82.66;99546.88;3702690;77;98398;-85
2022/04/09 18:16:21;;;;;;;7.37;2.02;;;;;;;4.19;82.67;99556.83;3735358;77;98315;-88
2022/04/09 18:21:24;;;;;;;5.73;1.93;;;;;;;4.11;83.32;99567.91;3709164;77;28457;-87
2022/04/09 18:26:27;;;;;;;6.37;2.35;;;;;;;4.03;83.30;99572.41;3735549;77;98233;-84
2022/04/09 18:31:28;;;;;;;26.52;6.90;;;;;;;3.94;85.40;99575.88;3634010;78;97412;-86
2022/04/09 18:36:37;;;;;;;13.00;3.77;;;;;;;3.88;84.37;99579.24;3721640;78;98469;-89
2022/04/09 18:41:40;;;;;;;4.92;2.12;;;;;;;3.83;84.44;99588.44;3730296;77;98514;-85
2022/04/09 18:46:41;;;;;;;6.50;2.00;;;;;;;3.77;84.65;99593.16;3683716;78;98299;-84
2022/04/09 18:51:42;;;;;;;8.60;3.27;;;;;;;3.72;85.59;99598.87;3700682;78;27002;-84
2022/04/09 18:56:43;;;;;;;8.67;3.27;;;;;;;3.67;84.81;99612.14;3724745;78;98217;-84
2022/04/09 19:01:45;;;;;;;20.53;6.30;;;;;;;3.61;84.86;99609.47;3726444;78;98160;-86
2022/04/09 19:06:46;;;;;;;11.60;3.13;;;;;;;3.56;84.92;99621.20;3715822;78;98258;-86
2022/04/09 19:11:47;;;;;;;9.23;2.50;;;;;;;3.51;85.02;99624.98;3720854;78;98388;-86
2022/04/09 19:16:49;;;;;;;8.47;2.93;;;;;;;3.46;85.13;99639.39;3691598;78;98115;-85
2022/04/09 19:22:00;;;;;;;9.73;2.37;;;;;;;3.41;85.67;99637.72;3725538;78;32234;-86
2022/04/09 19:27:02;;;;;;;8.55;3.33;;;;;;;3.36;86.34;99646.69;3718685;78;98252;-86
2022/04/09 19:32:04;;;;;;;7.67;3.05;;;;;;;3.32;86.11;99659.39;3743912;78;98061;-86
2022/04/09 19:37:11;;;;;;;7.17;2.90;;;;;;;3.28;86.27;99674.25;3710687;78;98264;-86
2022/04/09 19:42:13;;;;;;;12.53;5.73;;;;;;;3.25;86.06;99689.92;3707838;78;98337;-85
2022/04/09 19:47:17;;;;;;;17.17;7.00;;;;;;;3.23;86.62;99683.24;3729120;78;98421;-85
2022/04/09 19:52:22;;;;;;;11.65;4.00;;;;;;;3.15;87.34;99693.68;3715474;78;31445;-86
2022/04/09 19:57:28;;;;;;;8.28;3.40;;;;;;;3.09;87.90;99695.06;3739352;78;98386;-86
2022/04/09 20:02:58;;;;;;;12.97;5.13;;;;;;;3.02;87.65;99706.55;3740602;77;98080;-84
2022/04/09 20:07:51;;;;;;;10.93;4.07;;;;;;;2.97;88.31;99698.63;3691139;78;98463;-87
2022/04/09 20:12:58;;;;;;;20.45;6.67;;;;;;;2.94;88.12;99706.65;3740898;78;98510;-86
2022/04/09 20:18:06;;;;;;;13.73;5.50;;;;;;;2.91;88.08;99708.71;3686840;78;98476;-86
2022/04/09 20:23:11;;;;;;;24.40;8.17;;;;;;;2.87;88.21;99713.24;3733156;78;26526;-87
2022/04/09 20:28:21;;;;;;;20.03;7.23;;;;;;;2.87;88.50;99722.20;3697918;78;98851;-87
2022/04/09 20:33:24;;;;;;;14.70;4.60;;;;;;;2.87;88.37;99717.32;3720484;77;98682;-85
2022/04/09 20:38:29;;;;;;;11.50;3.58;;;;;;;2.87;88.88;99720.84;3714733;78;98906;-86
2022/04/09 20:43:30;;;;;;;10.33;2.90;;;;;;;2.87;88.57;99725.47;3689579;78;98629;-87
2022/04/09 20:48:36;;;;;;;11.73;3.63;;;;;;;2.88;88.59;99721.61;3725712;77;98388;-86
2022/04/09 20:53:37;;;;;;;11.68;3.87;;;;;;;2.86;88.63;99723.34;3723072;77;98462;-86
2022/04/09 20:58:42;;;;;;;12.83;4.40;;;;;;;2.84;88.65;99738.40;3729243;78;98273;-85
2022/04/09 21:03:49;;;;;;;13.10;4.50;;;;;;;2.83;89.12;99737.59;3716368;78;98342;-86
2022/04/09 21:08:52;;;;;;;10.20;3.60;;;;;;;2.83;89.10;99746.30;3728725;78;98523;-85
2022/04/09 21:13:55;;;;;;;8.73;4.03;;;;;;;2.81;89.06;99756.18;3732893;78;98524;-87
2022/04/09 21:18:57;;;;;;;9.37;3.33;;;;;;;2.79;89.17;99765.22;3704932;78;98418;-86
2022/04/09 21:23:59;;;;;;;11.27;4.07;;;;;;;2.76;89.92;99767.27;3754276;78;98330;-85
2022/04/09 21:29:00;;;;;;;8.90;3.05;;;;;;;2.76;90.20;99769.99;3734775;77;31661;-85
2022/04/09 21:34:01;;;;;;;9.37;3.60;;;;;;;2.78;90.47;99779.17;3729353;78;98220;-86
2022/04/09 21:39:02;;;;;;;9.37;3.10;;;;;;;2.81;90.23;99772.48;3730387;78;98190;-85
2022/04/09 21:44:08;;;;;;;9.03;3.40;;;;;;;2.83;90.83;99787.06;3726459;78;98294;-86
2022/04/09 21:49:10;;;;;;;11.77;3.57;;;;;;;2.83;90.09;99790.58;3651649;78;98338;-88
2022/04/09 21:54:12;;;;;;;10.23;3.57;;;;;;;2.84;90.16;99792.75;3704660;78;98457;-85
2022/04/09 21:59:13;;;;;;;10.73;4.40;;;;;;;2.85;90.44;99805.19;3732831;78;31636;-84
2022/04/09 22:04:15;;;;;;;12.03;3.87;;;;;;;2.84;90.27;99816.61;3725629;78;98427;-85
2022/04/09 22:09:16;;;;;;;8.73;3.22;;;;;;;2.82;90.47;99816.73;3724050;78;98580;-86
2022/04/09 22:14:17;;;;;;;7.77;2.97;;;;;;;2.79;90.28;99814.12;3717110;78;98430;-85
2022/04/09 22:19:19;;;;;;;10.20;3.40;;;;;;;2.78;90.71;99828.07;3740352;77;98759;-85
2022/04/09 22:24:20;;;;;;;8.87;2.97;;;;;;;2.73;90.74;99821.50;3743779;77;98699;-84
2022/04/09 22:29:21;;;;;;;8.73;2.60;;;;;;;2.70;90.29;99831.67;3740367;78;31744;-85
2022/04/09 22:34:59;;;;;;;7.78;3.12;;;;;;;2.66;90.15;99835.64;3731552;78;98218;-87
2022/04/09 22:40:00;;;;;;;9.15;2.92;;;;;;;2.65;90.43;99838.69;3729609;78;98158;-85
2022/04/09 22:45:03;;;;;;;8.67;2.60;;;;;;;2.60;90.03;99841.63;3735224;77;98417;-84
2022/04/09 22:50:06;;;;;;;6.92;2.50;;;;;;;2.56;90.28;99848.30;3743704;78;98475;-85
2022/04/09 22:55:08;;;;;;;8.65;2.85;;;;;;;2.53;90.15;99847.64;3735293;77;98312;-84
2022/04/09 23:00:10;;;;;;;6.95;2.27;;;;;;;2.51;90.19;99851.23;3732939;78;98441;-84
2022/04/09 23:05:11;;;;;;;6.33;2.45;;;;;;;2.48;90.70;99850.57;3749753;78;98055;-85
2022/04/09 23:10:12;;;;;;;7.87;3.23;;;;;;;2.40;90.58;99841.17;3732467;78;98305;-85
2022/04/09 23:15:15;;;;;;;7.70;2.92;;;;;;;2.49;90.76;99857.58;3735632;78;98379;-84
2022/04/09 23:20:17;;;;;;;5.83;2.60;;;;;;;2.50;91.00;99860.52;3756737;78;98117;-84
2022/04/09 23:25:18;;;;;;;12.73;4.70;;;;;;;2.54;91.18;99866.06;3742619;78;97908;-85
2022/04/09 23:30:19;;;;;;;5.77;2.20;;;;;;;2.57;91.21;99863.47;3745743;78;98461;-84
2022/04/09 23:35:21;;;;;;;9.00;2.03;;;;;;;2.58;91.74;99864.27;3706081;78;98308;-85
2022/04/09 23:40:21;;;;;;;8.40;2.50;;;;;;;2.59;91.31;99872.09;3713152;78;98164;-84
2022/04/09 23:45:22;;;;;;;5.90;2.07;;;;;;;2.61;91.43;99871.17;3726188;78;98083;-86
2022/04/09 23:50:23;;;;;;;9.90;2.17;;;;;;;2.61;91.38;99872.53;3735063;78;98304;-85